Cross Creek, Florida
Current Conditions -  °F | °C
As of 6:53 AM on Monday 22 Dec 2014 (Local Time) from KGNV Reporting Station
Overcast Overcast  
Wind Chill: 63°   Ceiling: 300
Heat Index: 63°   Visibility: 10mi
Dew Point: 63°   Wind: 6mph
Humidity: 100%   Direction: 110°ESE
Pressure: 29.99"   Gusts: NA
Location:  29.5572°N, 82.1051°W
Report Text: KGNV 221153Z 11005KT 10SM BKN003 OVC027 17/17 A2999 RMK AO2 RAE1054 CIG 002V006 SLP153 P0001 60057 70083 T01720172 10172 20172 55006
Loading
Personal Weather Stations






























Interactive Weather Map New forecast layout! Learn more

10-Day Weather Forecast

Advertisements
Track Severe Weather on mobile